Time;durP1;ratioP1;P1;durP2;ratioP2;P2;SDS_P1;SDS_P2;PMS_P1;PMS_P2;Temp;Humidity;BMP_temperature;BMP_pressure;BME280_temperature;BME280_humidity;BME280_pressure;Samples;Min_cycle;Max_cycle;Signal;HPM_P1;HPM_P2
2023/10/01 00:00:20;;;;;;;9.40;2.65;;;;;;;;;;5023024;28;20076;-74
2023/10/01 00:02:51;;;;;;;3.97;2.42;;;;;;;;;;5025632;28;20079;-74
2023/10/01 00:05:16;;;;;;;5.88;2.63;;;;;;;;;;5026093;28;20108;-74
2023/10/01 00:07:43;;;;;;;6.43;2.83;;;;;;;;;;5020593;28;20132;-74
2023/10/01 00:10:12;;;;;;;5.35;2.65;;;;;;;;;;5017696;28;20124;-74
2023/10/01 00:12:39;;;;;;;7.25;3.15;;;;;;;;;;5010634;28;20038;-74
2023/10/01 00:15:06;;;;;;;7.55;3.28;;;;;;;;;;5022153;28;20581;-74
2023/10/01 00:17:31;;;;;;;8.63;3.50;;;;;;;;;;5023961;28;20497;-74
2023/10/01 00:19:57;;;;;;;6.25;2.85;;;;;;;;;;5017440;28;20112;-74
2023/10/01 00:22:23;;;;;;;7.25;2.95;;;;;;;;;;5014417;28;20056;-74
2023/10/01 00:24:48;;;;;;;10.73;3.30;;;;;;;;;;5021390;28;20136;-74
2023/10/01 00:27:14;;;;;;;7.25;3.05;;;;;;;;;;5015517;28;20583;-74
2023/10/01 00:29:39;;;;;;;8.55;3.97;;;;;;;;;;5012806;28;20037;-74
2023/10/01 00:32:05;;;;;;;8.73;3.30;;;;;;;;;;5019096;28;20491;-74
2023/10/01 00:34:30;;;;;;;11.82;4.13;;;;;;;;;;5023750;28;20063;-74
2023/10/01 00:36:55;;;;;;;8.80;3.67;;;;;;;;;;5022423;28;20061;-74
2023/10/01 00:39:21;;;;;;;11.13;4.22;;;;;;;;;;5019811;28;20148;-74
2023/10/01 00:41:46;;;;;;;14.90;4.70;;;;;;;;;;5018522;28;20092;-74
2023/10/01 00:44:13;;;;;;;12.93;5.50;;;;;;;;;;5022349;28;20422;-74
2023/10/01 00:46:38;;;;;;;12.20;5.15;;;;;;;;;;5022996;28;20041;-74
2023/10/01 00:49:06;;;;;;;12.48;5.50;;;;;;;;;;5024444;28;20056;-74
2023/10/01 00:51:32;;;;;;;16.65;6.10;;;;;;;;;;5023209;28;20033;-74
2023/10/01 00:54:02;;;;;;;13.18;5.93;;;;;;;;;;5016400;28;20041;-74
2023/10/01 00:56:27;;;;;;;13.70;5.72;;;;;;;;;;5020267;28;20526;-74
2023/10/01 00:58:52;;;;;;;15.95;5.13;;;;;;;;;;5025464;28;20072;-74
2023/10/01 01:01:19;;;;;;;10.52;5.18;;;;;;;;;;5022387;28;20459;-74
2023/10/01 01:03:52;;;;;;;12.45;5.07;;;;;;;;;;5024700;28;20072;-74
2023/10/01 01:06:25;;;;;;;10.93;5.10;;;;;;;;;;5016869;28;20379;-74
2023/10/01 01:08:54;;;;;;;10.00;4.83;;;;;;;;;;5019547;28;20092;-74
2023/10/01 01:11:21;;;;;;;10.02;4.93;;;;;;;;;;5034933;28;20032;-74
2023/10/01 01:13:49;;;;;;;12.45;4.80;;;;;;;;;;5035858;28;20685;-74
2023/10/01 01:16:19;;;;;;;10.80;4.95;;;;;;;;;;5024965;28;20044;-74
2023/10/01 01:18:51;;;;;;;10.43;4.50;;;;;;;;;;5022925;28;20519;-74
2023/10/01 01:21:17;;;;;;;12.65;4.50;;;;;;;;;;5022331;28;20099;-74
2023/10/01 01:23:45;;;;;;;10.63;4.43;;;;;;;;;;5024540;28;20530;-74
2023/10/01 01:26:13;;;;;;;9.48;4.07;;;;;;;;;;5023670;28;20032;-74
2023/10/01 01:28:39;;;;;;;9.95;4.80;;;;;;;;;;5023816;28;20049;-74
2023/10/01 01:31:05;;;;;;;13.70;4.63;;;;;;;;;;5019295;28;20052;-74
2023/10/01 01:33:32;;;;;;;8.15;3.92;;;;;;;;;;5014552;28;20037;-74
2023/10/01 01:35:58;;;;;;;9.15;4.55;;;;;;;;;;5021921;28;20526;-74
2023/10/01 01:38:24;;;;;;;11.23;4.50;;;;;;;;;;5023031;28;20086;-74
2023/10/01 01:40:53;;;;;;;8.18;3.70;;;;;;;;;;5023397;28;20461;-74
2023/10/01 01:43:22;;;;;;;8.98;3.90;;;;;;;;;;5002987;28;20045;-74
2023/10/01 01:45:54;;;;;;;12.07;3.97;;;;;;;;;;5022290;28;20034;-74
2023/10/01 01:48:30;;;;;;;10.17;4.20;;;;;;;;;;5023401;28;20045;-74
2023/10/01 01:51:00;;;;;;;13.93;4.40;;;;;;;;;;5022596;28;20640;-74
2023/10/01 01:53:41;;;;;;;11.00;4.18;;;;;;;;;;5024085;28;20123;-74
2023/10/01 01:56:12;;;;;;;9.10;3.85;;;;;;;;;;5008726;28;20049;-74
2023/10/01 01:58:43;;;;;;;11.38;3.65;;;;;;;;;;5016204;28;20044;-74
2023/10/01 02:03:40;;;;;;;11.02;4.53;;;;;;;;;;5022841;28;20055;-74
2023/10/01 02:06:07;;;;;;;8.90;4.10;;;;;;;;;;5019427;28;20033;-75
2023/10/01 02:08:58;;;;;;;10.45;3.95;;;;;;;;;;5023091;28;20033;-74
2023/10/01 02:11:25;;;;;;;9.05;3.90;;;;;;;;;;5023775;28;20025;-73
2023/10/01 02:13:52;;;;;;;8.63;4.00;;;;;;;;;;5022389;28;20045;-74
2023/10/01 02:16:18;;;;;;;8.73;3.78;;;;;;;;;;5023115;28;20041;-73
2023/10/01 02:18:56;;;;;;;8.13;4.05;;;;;;;;;;5020307;28;20041;-73
2023/10/01 02:21:42;;;;;;;10.80;4.32;;;;;;;;;;5020421;28;20056;-74
2023/10/01 02:24:22;;;;;;;8.60;3.90;;;;;;;;;;5016359;28;20064;-74
2023/10/01 02:26:52;;;;;;;11.25;4.03;;;;;;;;;;5023455;28;20034;-73
2023/10/01 02:29:18;;;;;;;7.30;3.40;;;;;;;;;;5022595;28;20039;-74
2023/10/01 02:31:54;;;;;;;10.77;3.90;;;;;;;;;;5024478;28;20041;-74
2023/10/01 02:34:21;;;;;;;9.85;3.78;;;;;;;;;;5022071;28;20079;-74
2023/10/01 02:36:47;;;;;;;8.80;3.92;;;;;;;;;;5037503;28;20033;-74
2023/10/01 02:39:27;;;;;;;9.45;4.25;;;;;;;;;;5036663;28;20124;-73
2023/10/01 02:44:32;;;;;;;11.40;3.70;;;;;;;;;;5022297;28;20040;-73
2023/10/01 02:47:01;;;;;;;10.73;4.00;;;;;;;;;;5015508;28;20033;-73
2023/10/01 02:49:26;;;;;;;9.65;3.85;;;;;;;;;;5023179;28;20041;-74
2023/10/01 02:51:52;;;;;;;10.30;4.43;;;;;;;;;;5022644;28;20042;-74
2023/10/01 02:54:18;;;;;;;10.65;4.32;;;;;;;;;;5021996;28;20049;-74
2023/10/01 02:56:53;;;;;;;9.43;4.25;;;;;;;;;;5020739;28;20124;-74
2023/10/01 02:59:20;;;;;;;11.25;4.15;;;;;;;;;;5019013;28;20032;-73
2023/10/01 03:01:46;;;;;;;11.80;4.50;;;;;;;;;;5015649;28;20029;-74
2023/10/01 03:04:13;;;;;;;11.18;4.13;;;;;;;;;;5022520;28;20037;-74
2023/10/01 03:06:57;;;;;;;13.02;3.97;;;;;;;;;;5022580;28;20068;-74
2023/10/01 03:09:39;;;;;;;10.02;4.15;;;;;;;;;;5022051;28;20053;-73
2023/10/01 03:15:23;;;;;;;13.40;4.72;;;;;;;;;;5013434;28;20709;-74
2023/10/01 03:18:06;;;;;;;8.23;4.03;;;;;;;;;;5008104;28;20069;-74
2023/10/01 03:23:06;;;;;;;9.52;4.07;;;;;;;;;;5014951;28;20021;-73
2023/10/01 03:25:49;;;;;;;10.23;4.30;;;;;;;;;;5019491;28;20686;-74
2023/10/01 03:28:25;;;;;;;10.15;3.67;;;;;;;;;;5025494;28;20092;-73
2023/10/01 03:31:06;;;;;;;12.05;3.97;;;;;;;;;;5021293;28;20045;-73
2023/10/01 03:33:37;;;;;;;9.90;4.10;;;;;;;;;;5020709;28;20668;-73
2023/10/01 03:36:05;;;;;;;10.82;3.60;;;;;;;;;;5014418;28;20041;-73
2023/10/01 03:38:32;;;;;;;10.75;4.25;;;;;;;;;;5022539;28;20136;-73
2023/10/01 03:40:59;;;;;;;13.05;4.03;;;;;;;;;;5020142;28;20039;-74
2023/10/01 03:43:35;;;;;;;10.77;4.00;;;;;;;;;;5020467;28;20041;-74
2023/10/01 03:54:20;;;;;;;10.57;3.90;;;;;;;;;;5012687;28;20076;-73
2023/10/01 03:56:58;;;;;;;10.30;3.65;;;;;;;;;;5016344;28;20035;-73
2023/10/01 03:59:28;;;;;;;12.48;4.47;;;;;;;;;;5036495;28;20036;-73
2023/10/01 04:02:00;;;;;;;7.93;4.10;;;;;;;;;;5038536;28;20045;-74
2023/10/01 04:04:31;;;;;;;9.40;4.25;;;;;;;;;;5027063;28;20037;-73
2023/10/01 04:07:00;;;;;;;10.30;4.18;;;;;;;;;;5024149;28;20045;-73
2023/10/01 04:09:26;;;;;;;10.20;3.92;;;;;;;;;;5022772;28;20049;-73
2023/10/01 04:14:48;;;;;;;12.82;4.55;;;;;;;;;;5025288;28;20138;-73
2023/10/01 04:17:20;;;;;;;11.50;4.65;;;;;;;;;;5025604;28;20115;-73
2023/10/01 04:19:49;;;;;;;12.57;4.45;;;;;;;;;;5024856;28;20473;-74
2023/10/01 04:22:17;;;;;;;11.65;4.00;;;;;;;;;;5019933;28;20092;-74
2023/10/01 04:24:43;;;;;;;12.27;4.32;;;;;;;;;;5024711;28;20129;-73
2023/10/01 04:27:23;;;;;;;11.57;4.35;;;;;;;;;;5025413;28;20135;-74
2023/10/01 04:29:58;;;;;;;15.40;4.90;;;;;;;;;;5024840;28;20427;-74
2023/10/01 04:32:27;;;;;;;17.08;5.05;;;;;;;;;;5023890;28;20028;-74
2023/10/01 04:34:58;;;;;;;12.57;4.50;;;;;;;;;;5023127;28;20827;-73
2023/10/01 04:37:36;;;;;;;14.30;4.88;;;;;;;;;;5015673;28;20045;-74
2023/10/01 04:40:31;;;;;;;12.23;4.72;;;;;;;;;;5017806;28;20037;-74
2023/10/01 04:42:51;;;;;;;11.80;5.13;;;;;;;;;;5024339;28;20041;-73
2023/10/01 04:45:22;;;;;;;9.68;4.50;;;;;;;;;;5024428;28;20041;-74
2023/10/01 04:47:55;;;;;;;12.40;4.70;;;;;;;;;;5020427;28;20150;-73
2023/10/01 04:50:27;;;;;;;12.40;5.00;;;;;;;;;;5013676;28;20466;-74
2023/10/01 04:52:55;;;;;;;15.32;5.13;;;;;;;;;;5024852;28;20281;-73
2023/10/01 04:55:22;;;;;;;12.20;4.90;;;;;;;;;;5024793;28;20041;-73
2023/10/01 04:57:48;;;;;;;14.38;4.93;;;;;;;;;;5022603;28;20037;-74
2023/10/01 05:00:14;;;;;;;12.40;5.25;;;;;;;;;;5022662;28;20033;-74
2023/10/01 05:02:43;;;;;;;11.05;4.78;;;;;;;;;;5017338;28;20031;-74
2023/10/01 05:05:11;;;;;;;11.15;4.47;;;;;;;;;;5015565;28;20087;-73
2023/10/01 05:07:36;;;;;;;12.45;4.90;;;;;;;;;;5022921;28;20029;-74
2023/10/01 05:10:04;;;;;;;11.10;5.22;;;;;;;;;;5010046;28;20037;-73
2023/10/01 05:12:31;;;;;;;13.48;5.20;;;;;;;;;;5022501;28;20034;-73
2023/10/01 05:14:59;;;;;;;18.00;4.97;;;;;;;;;;5020459;28;20089;-74
2023/10/01 05:17:30;;;;;;;11.70;5.40;;;;;;;;;;5022153;28;20052;-74
2023/10/01 05:19:57;;;;;;;13.88;5.05;;;;;;;;;;5025717;28;20029;-74
2023/10/01 05:22:23;;;;;;;13.23;4.47;;;;;;;;;;5030183;28;20033;-73
2023/10/01 05:24:49;;;;;;;13.00;5.40;;;;;;;;;;5038063;28;20041;-73
2023/10/01 05:27:22;;;;;;;9.68;4.47;;;;;;;;;;5037478;28;20033;-73
2023/10/01 05:29:48;;;;;;;14.40;5.28;;;;;;;;;;5020217;28;20424;-73
2023/10/01 05:32:18;;;;;;;14.43;4.88;;;;;;;;;;5016037;28;20021;-73
2023/10/01 05:34:46;;;;;;;13.52;5.18;;;;;;;;;;5023589;28;20046;-74
2023/10/01 05:37:24;;;;;;;12.77;4.75;;;;;;;;;;5022864;28;20052;-74
2023/10/01 05:39:55;;;;;;;13.90;5.38;;;;;;;;;;5023593;28;20041;-74
2023/10/01 05:42:32;;;;;;;10.77;4.70;;;;;;;;;;5023866;28;20053;-74
2023/10/01 05:44:59;;;;;;;12.13;5.28;;;;;;;;;;5018984;28;20033;-73
2023/10/01 05:50:12;;;;;;;14.70;5.60;;;;;;;;;;5016530;28;20534;-74
2023/10/01 05:52:40;;;;;;;12.40;4.72;;;;;;;;;;5023341;28;20041;-73
2023/10/01 05:55:12;;;;;;;10.68;4.78;;;;;;;;;;5023879;28;20064;-73
2023/10/01 05:57:40;;;;;;;13.10;4.57;;;;;;;;;;5022051;28;20034;-73
2023/10/01 06:00:16;;;;;;;14.57;4.65;;;;;;;;;;5023383;28;20033;-74
2023/10/01 06:03:00;;;;;;;11.60;5.05;;;;;;;;;;5021918;28;20021;-73
2023/10/01 06:08:44;;;;;;;11.57;4.78;;;;;;;;;;5016471;28;20037;-74
2023/10/01 06:11:13;;;;;;;10.70;3.78;;;;;;;;;;5015971;28;20021;-73
2023/10/01 06:13:48;;;;;;;13.90;5.13;;;;;;;;;;5012349;28;20037;-74
2023/10/01 06:16:15;;;;;;;12.90;4.95;;;;;;;;;;5023237;28;20079;-73
2023/10/01 06:18:50;;;;;;;11.98;4.80;;;;;;;;;;5022386;28;20039;-74
2023/10/01 06:21:26;;;;;;;15.25;4.35;;;;;;;;;;5022582;28;20071;-73
2023/10/01 06:23:53;;;;;;;10.48;4.75;;;;;;;;;;5022707;28;20030;-74
2023/10/01 06:26:33;;;;;;;13.13;5.30;;;;;;;;;;5012410;28;20033;-73
2023/10/01 06:29:01;;;;;;;12.73;4.78;;;;;;;;;;5021126;28;20046;-73
2023/10/01 06:31:27;;;;;;;13.60;5.07;;;;;;;;;;5018584;28;20064;-74
2023/10/01 06:33:56;;;;;;;16.17;5.32;;;;;;;;;;5017673;28;20407;-73
2023/10/01 06:36:23;;;;;;;8.68;4.68;;;;;;;;;;5015285;28;20048;-74
2023/10/01 06:38:53;;;;;;;14.45;5.00;;;;;;;;;;5021808;28;20064;-73
2023/10/01 06:41:25;;;;;;;13.00;5.07;;;;;;;;;;5016556;28;20037;-75
2023/10/01 06:43:54;;;;;;;16.75;5.25;;;;;;;;;;5017908;28;20096;-73
2023/10/01 06:46:30;;;;;;;11.38;4.78;;;;;;;;;;5028026;28;20041;-73
2023/10/01 06:48:58;;;;;;;12.52;5.03;;;;;;;;;;5028846;28;20036;-73
2023/10/01 06:51:25;;;;;;;13.93;5.13;;;;;;;;;;5023362;28;20550;-73
2023/10/01 06:53:59;;;;;;;10.40;4.40;;;;;;;;;;5017304;28;20817;-73
2023/10/01 06:56:27;;;;;;;13.00;5.00;;;;;;;;;;5016570;28;20083;-73
2023/10/01 07:01:42;;;;;;;10.50;4.70;;;;;;;;;;5016749;28;20352;-73
2023/10/01 07:04:11;;;;;;;12.65;4.90;;;;;;;;;;5010278;28;20527;-73
2023/10/01 07:06:39;;;;;;;11.85;5.00;;;;;;;;;;5019930;28;20588;-74
2023/10/01 07:09:24;;;;;;;14.88;4.82;;;;;;;;;;5020272;28;20129;-73
2023/10/01 07:12:17;;;;;;;11.85;4.57;;;;;;;;;;5018980;28;20041;-74
2023/10/01 07:14:43;;;;;;;10.50;4.80;;;;;;;;;;5027078;28;20040;-73
2023/10/01 07:17:13;;;;;;;9.95;4.85;;;;;;;;;;5017187;28;20022;-73
2023/10/01 07:19:40;;;;;;;13.02;4.65;;;;;;;;;;5018548;28;20523;-73
2023/10/01 07:22:09;;;;;;;13.40;4.70;;;;;;;;;;5015140;28;20143;-73
2023/10/01 07:24:40;;;;;;;12.95;4.78;;;;;;;;;;5012172;28;20280;-73
2023/10/01 07:27:06;;;;;;;11.10;4.72;;;;;;;;;;5016544;28;20040;-74
2023/10/01 07:29:36;;;;;;;11.13;4.07;;;;;;;;;;5020579;28;20419;-74
2023/10/01 07:32:07;;;;;;;14.43;4.85;;;;;;;;;;5014736;28;20030;-73
2023/10/01 07:34:35;;;;;;;13.88;5.10;;;;;;;;;;5019243;28;20041;-73
2023/10/01 07:37:03;;;;;;;10.82;4.63;;;;;;;;;;5018939;28;20038;-74
2023/10/01 07:39:36;;;;;;;11.32;4.78;;;;;;;;;;5015596;28;20042;-74
2023/10/01 07:42:10;;;;;;;16.05;5.28;;;;;;;;;;5013334;28;20037;-74
2023/10/01 07:44:36;;;;;;;11.23;4.90;;;;;;;;;;5018543;28;20148;-73
2023/10/01 07:47:04;;;;;;;12.70;4.78;;;;;;;;;;5018953;28;20037;-73
2023/10/01 07:49:49;;;;;;;11.40;4.20;;;;;;;;;;5020838;28;20040;-73
2023/10/01 07:52:17;;;;;;;8.95;4.05;;;;;;;;;;5017594;28;20041;-73
2023/10/01 07:54:44;;;;;;;13.50;4.85;;;;;;;;;;5017764;28;20072;-74
2023/10/01 07:57:13;;;;;;;12.13;4.63;;;;;;;;;;5012554;28;20977;-73
2023/10/01 07:59:42;;;;;;;17.50;4.82;;;;;;;;;;5015820;28;20090;-73
2023/10/01 08:02:19;;;;;;;10.93;4.72;;;;;;;;;;5022937;28;20060;-74
2023/10/01 08:04:58;;;;;;;10.57;4.25;;;;;;;;;;5024383;28;20598;-74
2023/10/01 08:07:30;;;;;;;15.43;4.55;;;;;;;;;;5019856;28;20034;-74
2023/10/01 08:09:59;;;;;;;10.93;4.37;;;;;;;;;;5028982;28;20033;-74
2023/10/01 08:12:29;;;;;;;13.35;5.40;;;;;;;;;;5039755;28;20029;-75
2023/10/01 08:17:47;;;;;;;12.38;5.03;;;;;;;;;;5015599;28;20063;-75
2023/10/01 08:20:25;;;;;;;11.88;5.00;;;;;;;;;;5012923;28;20085;-75
2023/10/01 08:25:42;;;;;;;10.85;4.35;;;;;;;;;;5019764;28;20522;-74
2023/10/01 08:30:40;;;;;;;14.07;5.80;;;;;;;;;;5021335;28;20576;-74
2023/10/01 08:33:32;;;;;;;15.05;4.72;;;;;;;;;;5021233;28;20041;-74
2023/10/01 08:36:12;;;;;;;12.25;4.65;;;;;;;;;;5024198;28;20033;-74
2023/10/01 08:38:37;;;;;;;12.65;4.45;;;;;;;;;;5024601;28;20044;-75
2023/10/01 08:41:05;;;;;;;11.50;4.75;;;;;;;;;;5022470;28;20138;-77
2023/10/01 08:43:35;;;;;;;16.30;5.47;;;;;;;;;;5015730;28;20493;-74
2023/10/01 08:46:12;;;;;;;16.80;5.55;;;;;;;;;;5019016;28;20135;-74
2023/10/01 08:48:38;;;;;;;15.35;5.05;;;;;;;;;;5019905;28;20530;-74
2023/10/01 08:51:16;;;;;;;12.73;4.97;;;;;;;;;;5013176;28;20426;-72
2023/10/01 08:53:43;;;;;;;13.02;4.63;;;;;;;;;;5023777;28;20448;-75
2023/10/01 08:56:13;;;;;;;14.25;5.00;;;;;;;;;;5024917;28;20065;-75
2023/10/01 08:58:49;;;;;;;11.90;4.68;;;;;;;;;;5022011;28;20037;-74
2023/10/01 09:01:19;;;;;;;11.77;5.07;;;;;;;;;;5016027;28;20550;-76
2023/10/01 09:03:49;;;;;;;12.77;5.10;;;;;;;;;;5016520;28;20118;-76
2023/10/01 09:06:24;;;;;;;14.30;5.70;;;;;;;;;;5013276;28;20041;-75
2023/10/01 09:08:59;;;;;;;13.25;5.22;;;;;;;;;;5015103;28;20138;-76
2023/10/01 09:11:42;;;;;;;13.05;5.10;;;;;;;;;;5013960;28;20037;-75
2023/10/01 09:14:15;;;;;;;14.55;5.07;;;;;;;;;;5007226;28;20088;-75
2023/10/01 09:16:44;;;;;;;14.40;4.68;;;;;;;;;;5017626;28;20049;-75
2023/10/01 09:19:31;;;;;;;11.65;4.40;;;;;;;;;;5022477;28;20535;-75
2023/10/01 09:22:07;;;;;;;11.38;4.60;;;;;;;;;;5023556;28;20048;-75
2023/10/01 09:24:39;;;;;;;11.95;4.72;;;;;;;;;;5017909;28;20053;-75
2023/10/01 09:27:18;;;;;;;12.85;4.70;;;;;;;;;;5012700;28;20041;-75
2023/10/01 09:29:46;;;;;;;12.32;4.22;;;;;;;;;;5010326;28;20691;-75
2023/10/01 09:32:13;;;;;;;14.88;5.30;;;;;;;;;;5023791;28;20025;-74
2023/10/01 09:34:53;;;;;;;10.02;4.50;;;;;;;;;;5027923;28;20057;-75
2023/10/01 09:37:34;;;;;;;11.13;4.57;;;;;;;;;;5026553;28;20508;-75
2023/10/01 09:42:57;;;;;;;14.90;5.40;;;;;;;;;;5010293;28;20087;-75
2023/10/01 09:45:29;;;;;;;12.95;5.10;;;;;;;;;;5013727;28;20680;-75
2023/10/01 09:48:30;;;;;;;11.80;4.45;;;;;;;;;;5019024;28;20079;-75
2023/10/01 09:51:15;;;;;;;14.05;5.05;;;;;;;;;;5011592;28;20090;-75
2023/10/01 09:53:44;;;;;;;10.45;4.50;;;;;;;;;;5017614;28;20473;-75
2023/10/01 09:56:46;;;;;;;11.85;4.22;;;;;;;;;;5021444;28;20414;-75
2023/10/01 09:59:15;;;;;;;10.88;4.75;;;;;;;;;;5015486;28;20049;-75
2023/10/01 10:01:42;;;;;;;13.20;4.80;;;;;;;;;;5022328;28;20041;-75
2023/10/01 10:04:19;;;;;;;17.13;4.45;;;;;;;;;;5011820;28;20115;-75
2023/10/01 10:06:59;;;;;;;13.90;4.47;;;;;;;;;;5018825;28;20216;-75
2023/10/01 10:09:26;;;;;;;10.30;4.07;;;;;;;;;;5014322;28;20061;-75
2023/10/01 10:11:51;;;;;;;14.00;4.60;;;;;;;;;;5022743;28;20034;-75
2023/10/01 10:14:26;;;;;;;12.75;4.45;;;;;;;;;;5023570;28;20475;-75
2023/10/01 10:16:58;;;;;;;16.63;4.80;;;;;;;;;;5021104;28;20191;-74
2023/10/01 10:19:24;;;;;;;13.52;5.03;;;;;;;;;;5019084;28;20041;-75
2023/10/01 10:24:30;;;;;;;13.45;4.55;;;;;;;;;;5021769;28;20493;-75
2023/10/01 10:27:15;;;;;;;10.95;4.85;;;;;;;;;;5018039;28;20136;-75
2023/10/01 10:29:46;;;;;;;10.45;4.07;;;;;;;;;;5020352;28;20041;-75
2023/10/01 10:32:13;;;;;;;14.65;5.05;;;;;;;;;;5016629;28;20029;-75
2023/10/01 10:35:03;;;;;;;12.60;5.47;;;;;;;;;;5016721;28;20037;-75
2023/10/01 10:37:38;;;;;;;15.23;5.78;;;;;;;;;;5016163;28;20053;-75
2023/10/01 10:42:46;;;;;;;12.23;5.35;;;;;;;;;;5015705;28;20423;-75
2023/10/01 10:45:21;;;;;;;11.95;5.10;;;;;;;;;;5017417;28;20038;-75
2023/10/01 10:48:04;;;;;;;12.40;5.57;;;;;;;;;;5012130;28;22741;-75
2023/10/01 10:50:57;;;;;;;13.68;4.70;;;;;;;;;;5011675;28;20036;-75
2023/10/01 10:53:29;;;;;;;13.60;5.38;;;;;;;;;;5010220;28;20792;-75
2023/10/01 10:56:00;;;;;;;15.35;6.95;;;;;;;;;;5021414;28;20439;-74
2023/10/01 10:58:38;;;;;;;13.50;5.38;;;;;;;;;;5032828;28;20061;-75
2023/10/01 11:01:18;;;;;;;15.98;6.30;;;;;;;;;;5034114;28;20093;-75
2023/10/01 11:03:54;;;;;;;16.92;7.25;;;;;;;;;;5020507;28;20107;-75
2023/10/01 11:06:19;;;;;;;12.20;5.90;;;;;;;;;;5024908;28;20038;-75
2023/10/01 11:08:53;;;;;;;12.90;6.10;;;;;;;;;;5017422;28;20037;-74
2023/10/01 11:11:44;;;;;;;18.63;4.95;;;;;;;;;;5016138;28;20389;-75
2023/10/01 11:14:17;;;;;;;10.35;4.28;;;;;;;;;;5019166;28;20639;-75
2023/10/01 11:16:46;;;;;;;8.50;3.78;;;;;;;;;;5004129;28;20050;-74
2023/10/01 11:19:17;;;;;;;14.98;5.72;;;;;;;;;;5001647;28;20048;-75
2023/10/01 11:21:55;;;;;;;9.30;4.03;;;;;;;;;;4998876;28;20034;-75
2023/10/01 11:24:25;;;;;;;10.93;4.40;;;;;;;;;;5006642;28;20045;-75
2023/10/01 11:27:14;;;;;;;11.90;4.47;;;;;;;;;;5005502;28;20041;-75
2023/10/01 11:30:19;;;;;;;16.15;5.82;;;;;;;;;;4998776;28;20113;-75
2023/10/01 11:33:13;;;;;;;16.67;6.57;;;;;;;;;;4998033;28;20037;-75
2023/10/01 11:35:41;;;;;;;;;;;;;;;;;;5004026;28;20031;-75
2023/10/01 11:38:09;;;;;;;13.90;4.35;;;;;;;;;;5010628;28;19924;-75
2023/10/01 11:46:20;;;;;;;14.77;5.18;;;;;;;;;;5006782;28;20565;-75
2023/10/01 11:49:15;;;;;;;9.25;4.22;;;;;;;;;;4998053;28;20106;-75
2023/10/01 11:52:02;;;;;;;14.23;4.63;;;;;;;;;;4996271;28;20045;-75
2023/10/01 11:54:43;;;;;;;11.18;4.45;;;;;;;;;;5001673;28;20558;-75
2023/10/01 11:57:35;;;;;;;9.38;4.20;;;;;;;;;;4995217;28;20037;-75
2023/10/01 12:00:03;;;;;;;10.82;4.43;;;;;;;;;;5004105;28;20042;-75
2023/10/01 12:02:32;;;;;;;11.15;4.85;;;;;;;;;;5022132;28;20149;-75
2023/10/01 12:04:59;;;;;;;14.45;4.65;;;;;;;;;;4998182;28;20055;-75
2023/10/01 12:07:31;;;;;;;11.40;4.65;;;;;;;;;;5000059;28;20045;-75
2023/10/01 12:09:58;;;;;;;9.98;4.32;;;;;;;;;;5002022;28;20041;-75
2023/10/01 12:12:27;;;;;;;12.27;4.68;;;;;;;;;;4996282;28;20088;-75
2023/10/01 12:14:56;;;;;;;11.93;4.80;;;;;;;;;;4994113;28;20487;-75
2023/10/01 12:17:29;;;;;;;11.77;4.78;;;;;;;;;;5001716;28;20030;-75
2023/10/01 12:19:57;;;;;;;10.13;4.28;;;;;;;;;;5011460;28;20038;-75
2023/10/01 12:22:26;;;;;;;13.77;5.70;;;;;;;;;;5018535;28;20069;-75
2023/10/01 12:25:02;;;;;;;13.38;5.97;;;;;;;;;;5010526;28;20718;-75
2023/10/01 12:27:40;;;;;;;15.63;6.47;;;;;;;;;;4997512;28;20061;-75
2023/10/01 12:30:11;;;;;;;11.85;4.60;;;;;;;;;;4997685;28;20057;-75
2023/10/01 12:32:47;;;;;;;12.80;5.20;;;;;;;;;;5001979;28;20034;-75
2023/10/01 12:35:27;;;;;;;13.20;5.15;;;;;;;;;;4994400;28;20243;-75
2023/10/01 12:38:05;;;;;;;10.35;4.45;;;;;;;;;;5003273;28;20496;-75
2023/10/01 12:40:36;;;;;;;15.77;6.65;;;;;;;;;;4997639;28;20907;-75
2023/10/01 12:43:32;;;;;;;13.07;5.22;;;;;;;;;;4991196;28;20050;-75
2023/10/01 12:45:51;;;;;;;16.08;5.88;;;;;;;;;;5003870;28;20137;-75
2023/10/01 12:48:20;;;;;;;13.23;6.38;;;;;;;;;;5001250;28;20133;-75
2023/10/01 12:51:03;;;;;;;16.23;5.68;;;;;;;;;;4993735;28;20125;-75
2023/10/01 12:53:34;;;;;;;12.93;5.57;;;;;;;;;;4997275;28;20026;-75
2023/10/01 12:56:03;;;;;;;15.68;5.90;;;;;;;;;;4998458;28;20458;-74
2023/10/01 12:58:36;;;;;;;15.85;5.68;;;;;;;;;;5001321;28;20412;-76
2023/10/01 13:01:31;;;;;;;13.75;5.57;;;;;;;;;;5013567;28;20072;-75
2023/10/01 13:04:21;;;;;;;11.82;4.85;;;;;;;;;;5024130;28;20053;-75
2023/10/01 13:06:46;;;;;;;12.43;4.85;;;;;;;;;;5010646;28;20049;-75
2023/10/01 13:09:53;;;;;;;13.05;5.10;;;;;;;;;;5002203;28;20127;-75
2023/10/01 13:12:17;;;;;;;15.27;5.88;;;;;;;;;;5005194;28;20049;-75
2023/10/01 13:15:14;;;;;;;15.00;5.30;;;;;;;;;;5017423;28;20029;-75
2023/10/01 13:17:48;;;;;;;13.25;5.40;;;;;;;;;;5021743;28;20614;-75
2023/10/01 13:20:46;;;;;;;11.95;5.20;;;;;;;;;;5017139;28;20037;-75
2023/10/01 13:23:12;;;;;;;14.55;5.90;;;;;;;;;;5017131;28;20072;-75
2023/10/01 13:25:39;;;;;;;13.80;5.15;;;;;;;;;;5006109;28;20041;-75
2023/10/01 13:28:04;;;;;;;13.80;5.10;;;;;;;;;;5002881;28;20053;-75
2023/10/01 13:31:35;;;;;;;17.23;5.95;;;;;;;;;;5001686;28;20050;-75
2023/10/01 13:33:23;;;;;;;12.68;5.50;;;;;;;;;;5001348;28;20526;-75
2023/10/01 13:35:58;;;;;;;15.75;6.05;;;;;;;;;;4998199;28;20108;-75
2023/10/01 13:38:52;;;;;;;14.63;5.40;;;;;;;;;;5001785;28;20018;-76
2023/10/01 14:08:46;;;;;;;13.00;5.75;;;;;;;;;;4996256;28;20041;-74
2023/10/01 14:11:13;;;;;;;13.70;5.53;;;;;;;;;;4999632;28;20034;-74
2023/10/01 14:13:43;;;;;;;14.25;5.28;;;;;;;;;;4995373;28;20114;-75
2023/10/01 14:16:12;;;;;;;13.48;5.60;;;;;;;;;;4997833;28;20061;-74
2023/10/01 14:18:38;;;;;;;15.05;5.25;;;;;;;;;;4992004;28;20041;-74
2023/10/01 14:21:12;;;;;;;14.23;5.82;;;;;;;;;;4999430;28;20103;-74
2023/10/01 14:23:44;;;;;;;14.60;5.43;;;;;;;;;;4996518;28;20022;-75
2023/10/01 14:26:10;;;;;;;13.60;5.40;;;;;;;;;;5000606;28;20034;-75
2023/10/01 14:28:37;;;;;;;13.90;5.60;;;;;;;;;;5002583;28;20115;-74
2023/10/01 14:31:05;;;;;;;11.65;4.57;;;;;;;;;;4994659;28;20108;-74
2023/10/01 14:33:40;;;;;;;12.90;4.95;;;;;;;;;;4997398;28;20053;-74
2023/10/01 14:36:10;;;;;;;13.93;5.13;;;;;;;;;;4995768;28;20037;-74
2023/10/01 14:38:40;;;;;;;10.93;4.60;;;;;;;;;;5002043;28;20014;-74
2023/10/01 14:41:17;;;;;;;11.35;5.20;;;;;;;;;;4995498;28;20030;-75
2023/10/01 14:43:53;;;;;;;13.50;5.20;;;;;;;;;;5000826;28;20205;-75
2023/10/01 14:46:20;;;;;;;13.75;5.38;;;;;;;;;;5000211;28;20034;-75
2023/10/01 14:48:46;;;;;;;16.10;5.47;;;;;;;;;;4997685;28;20038;-74
2023/10/01 14:51:16;;;;;;;13.57;4.88;;;;;;;;;;4996868;28;20041;-74
2023/10/01 14:53:41;;;;;;;11.07;5.38;;;;;;;;;;5000321;28;20049;-74
2023/10/01 14:56:07;;;;;;;9.98;4.30;;;;;;;;;;5001998;28;20022;-74
2023/10/01 14:58:35;;;;;;;12.95;5.13;;;;;;;;;;5002618;28;20129;-74
2023/10/01 15:01:01;;;;;;;13.05;4.43;;;;;;;;;;5002711;28;20046;-74
2023/10/01 15:03:34;;;;;;;12.05;4.80;;;;;;;;;;5003457;28;20044;-74
2023/10/01 15:06:01;;;;;;;13.65;5.78;;;;;;;;;;5004075;28;20030;-74
2023/10/01 15:08:29;;;;;;;13.70;5.00;;;;;;;;;;5005503;28;20026;-74
2023/10/01 15:10:57;;;;;;;11.93;4.82;;;;;;;;;;5012050;28;20038;-74
2023/10/01 15:13:35;;;;;;;12.25;4.72;;;;;;;;;;5008141;28;20046;-74
2023/10/01 15:16:02;;;;;;;12.02;4.93;;;;;;;;;;4996102;28;20045;-74
2023/10/01 15:18:28;;;;;;;15.43;5.50;;;;;;;;;;4997717;28;20056;-74
2023/10/01 15:20:54;;;;;;;14.35;5.15;;;;;;;;;;5001372;28;20041;-74
2023/10/01 15:23:20;;;;;;;12.25;4.88;;;;;;;;;;5001902;28;20037;-74
2023/10/01 15:25:46;;;;;;;10.02;4.88;;;;;;;;;;5001306;28;20129;-74
2023/10/01 15:28:15;;;;;;;10.55;4.85;;;;;;;;;;4999319;28;20120;-74
2023/10/01 15:30:45;;;;;;;13.50;5.15;;;;;;;;;;4997776;28;20140;-74
2023/10/01 15:33:15;;;;;;;11.63;5.13;;;;;;;;;;5000846;28;20044;-74
2023/10/01 15:35:51;;;;;;;11.88;5.05;;;;;;;;;;4999703;28;20037;-74
2023/10/01 15:38:35;;;;;;;12.15;5.38;;;;;;;;;;5002872;28;20436;-75
2023/10/01 15:41:01;;;;;;;13.38;5.10;;;;;;;;;;4997548;28;20037;-74
2023/10/01 15:43:26;;;;;;;13.35;5.43;;;;;;;;;;4999123;28;20056;-74
2023/10/01 15:46:11;;;;;;;11.52;5.00;;;;;;;;;;4981206;28;20042;-75
2023/10/01 15:48:48;;;;;;;12.13;5.82;;;;;;;;;;4992727;28;20479;-75
2023/10/01 15:51:25;;;;;;;12.23;5.63;;;;;;;;;;4993170;28;20662;-75
2023/10/01 15:53:51;;;;;;;11.50;5.10;;;;;;;;;;4992255;28;20038;-75
2023/10/01 15:56:29;;;;;;;11.65;4.65;;;;;;;;;;5002061;28;20033;-75
2023/10/01 15:58:55;;;;;;;11.65;4.95;;;;;;;;;;4999242;28;20033;-75
2023/10/01 16:01:23;;;;;;;11.40;4.72;;;;;;;;;;4999919;28;20072;-75
2023/10/01 16:03:52;;;;;;;12.52;5.03;;;;;;;;;;4995974;28;20045;-75
2023/10/01 16:06:18;;;;;;;14.07;5.03;;;;;;;;;;4998131;28;20523;-75
2023/10/01 16:08:44;;;;;;;10.57;4.88;;;;;;;;;;4996994;28;20084;-74
2023/10/01 16:11:12;;;;;;;12.60;4.72;;;;;;;;;;4997636;28;20554;-75
2023/10/01 16:13:37;;;;;;;12.65;5.03;;;;;;;;;;4997640;28;20080;-74
2023/10/01 16:16:07;;;;;;;12.10;4.97;;;;;;;;;;5005002;28;20052;-75
2023/10/01 16:18:35;;;;;;;11.88;5.03;;;;;;;;;;4997656;28;20030;-75